sensor_id;sensor_type;location;lat;lon;timestamp;pressure;altitude;pressure_sealevel;temperature;humidity
11223;BME280;5668;52.012;8.724;2024-03-23T00:54:14;99472.25;;;10.64;99.66
11223;BME280;5668;52.012;8.724;2024-03-23T00:56:40;99480.03;;;10.64;99.30
11223;BME280;5668;52.012;8.724;2024-03-23T00:59:08;99465.28;;;10.65;99.68
11223;BME280;5668;52.012;8.724;2024-03-23T01:01:34;99461.84;;;10.64;99.51
11223;BME280;5668;52.012;8.724;2024-03-23T01:04:01;99453.22;;;10.64;99.81
11223;BME280;5668;52.012;8.724;2024-03-23T01:06:28;99455.41;;;10.59;99.64
11223;BME280;5668;52.012;8.724;2024-03-23T01:08:55;99454.00;;;10.55;99.83
11223;BME280;5668;52.012;8.724;2024-03-23T01:11:23;99454.09;;;10.53;99.94
11223;BME280;5668;52.012;8.724;2024-03-23T01:13:50;99445.50;;;10.53;100.00
11223;BME280;5668;52.012;8.724;2024-03-23T01:16:16;99443.16;;;10.50;99.92
11223;BME280;5668;52.012;8.724;2024-03-23T01:18:43;99445.06;;;10.47;99.67
11223;BME280;5668;52.012;8.724;2024-03-23T01:21:10;99437.28;;;10.47;100.00
11223;BME280;5668;52.012;8.724;2024-03-23T01:23:37;99440.69;;;10.48;100.00
11223;BME280;5668;52.012;8.724;2024-03-23T01:26:03;99439.75;;;10.49;100.00
11223;BME280;5668;52.012;8.724;2024-03-23T01:28:31;99426.88;;;10.47;99.86
11223;BME280;5668;52.012;8.724;2024-03-23T01:30:58;99426.06;;;10.47;100.00
11223;BME280;5668;52.012;8.724;2024-03-23T01:33:24;99424.41;;;10.46;100.00
11223;BME280;5668;52.012;8.724;2024-03-23T01:35:51;99417.44;;;10.46;100.00
11223;BME280;5668;52.012;8.724;2024-03-23T01:38:18;99412.50;;;10.43;99.71
11223;BME280;5668;52.012;8.724;2024-03-23T01:40:45;99420.16;;;10.45;99.91
11223;BME280;5668;52.012;8.724;2024-03-23T01:43:12;99415.13;;;10.43;99.80
11223;BME280;5668;52.012;8.724;2024-03-23T01:45:41;99409.22;;;10.41;99.89
11223;BME280;5668;52.012;8.724;2024-03-23T01:48:07;99400.72;;;10.39;99.82
11223;BME280;5668;52.012;8.724;2024-03-23T01:50:35;99398.53;;;10.35;99.69
11223;BME280;5668;52.012;8.724;2024-03-23T01:53:02;99396.03;;;10.33;99.79
11223;BME280;5668;52.012;8.724;2024-03-23T01:55:32;99396.16;;;10.32;99.42
11223;BME280;5668;52.012;8.724;2024-03-23T01:57:58;99398.22;;;10.28;99.45
11223;BME280;5668;52.012;8.724;2024-03-23T02:00:26;99384.53;;;10.26;99.56
11223;BME280;5668;52.012;8.724;2024-03-23T02:02:55;99386.41;;;10.24;99.37
11223;BME280;5668;52.012;8.724;2024-03-23T02:05:22;99375.22;;;10.24;99.44
11223;BME280;5668;52.012;8.724;2024-03-23T02:07:49;99377.25;;;10.20;99.09
11223;BME280;5668;52.012;8.724;2024-03-23T02:10:18;99381.75;;;10.18;99.45
11223;BME280;5668;52.012;8.724;2024-03-23T02:12:44;99381.94;;;10.15;99.41
11223;BME280;5668;52.012;8.724;2024-03-23T02:15:12;99379.75;;;10.10;99.49
11223;BME280;5668;52.012;8.724;2024-03-23T02:17:39;99376.34;;;10.10;99.95
11223;BME280;5668;52.012;8.724;2024-03-23T02:20:10;99366.66;;;10.12;100.00
11223;BME280;5668;52.012;8.724;2024-03-23T02:22:38;99355.56;;;10.10;99.95
11223;BME280;5668;52.012;8.724;2024-03-23T02:25:07;99366.78;;;10.10;99.70
11223;BME280;5668;52.012;8.724;2024-03-23T02:27:33;99360.75;;;10.10;99.88
11223;BME280;5668;52.012;8.724;2024-03-23T02:30:02;99372.09;;;10.09;99.78
11223;BME280;5668;52.012;8.724;2024-03-23T02:32:28;99370.72;;;10.05;100.00
11223;BME280;5668;52.012;8.724;2024-03-23T02:34:55;99356.31;;;10.01;99.83
11223;BME280;5668;52.012;8.724;2024-03-23T02:37:21;99358.09;;;10.00;100.00
11223;BME280;5668;52.012;8.724;2024-03-23T02:39:49;99362.72;;;9.97;100.00
11223;BME280;5668;52.012;8.724;2024-03-23T02:42:16;99354.94;;;9.97;100.00
11223;BME280;5668;52.012;8.724;2024-03-23T02:44:44;99349.88;;;9.95;100.00
11223;BME280;5668;52.012;8.724;2024-03-23T02:47:10;99360.13;;;9.97;100.00
11223;BME280;5668;52.012;8.724;2024-03-23T02:49:37;99361.06;;;9.96;100.00
11223;BME280;5668;52.012;8.724;2024-03-23T02:52:04;99358.38;;;9.97;100.00
11223;BME280;5668;52.012;8.724;2024-03-23T02:54:31;99351.66;;;9.95;100.00
11223;BME280;5668;52.012;8.724;2024-03-23T02:56:57;99346.34;;;9.96;100.00
11223;BME280;5668;52.012;8.724;2024-03-23T02:59:26;99334.06;;;9.98;100.00
11223;BME280;5668;52.012;8.724;2024-03-23T03:04:25;99342.28;;;10.03;100.00
11223;BME280;5668;52.012;8.724;2024-03-23T03:06:52;99337.91;;;10.04;100.00
11223;BME280;5668;52.012;8.724;2024-03-23T03:09:19;99335.44;;;10.02;100.00
11223;BME280;5668;52.012;8.724;2024-03-23T03:11:47;99335.44;;;10.02;100.00
11223;BME280;5668;52.012;8.724;2024-03-23T03:14:39;99327.09;;;9.99;100.00
11223;BME280;5668;52.012;8.724;2024-03-23T03:17:31;99330.63;;;9.98;100.00
11223;BME280;5668;52.012;8.724;2024-03-23T03:20:23;99324.63;;;9.97;100.00
11223;BME280;5668;52.012;8.724;2024-03-23T03:23:14;99316.97;;;9.96;100.00
11223;BME280;5668;52.012;8.724;2024-03-23T03:26:05;99315.06;;;9.98;100.00
11223;BME280;5668;52.012;8.724;2024-03-23T03:28:57;99321.09;;;9.98;99.86
11223;BME280;5668;52.012;8.724;2024-03-23T03:31:50;99318.59;;;9.97;99.87
11223;BME280;5668;52.012;8.724;2024-03-23T03:34:41;99310.81;;;9.97;100.00
11223;BME280;5668;52.012;8.724;2024-03-23T03:37:32;99314.47;;;9.94;99.75
11223;BME280;5668;52.012;8.724;2024-03-23T03:40:23;99309.19;;;9.96;99.77
11223;BME280;5668;52.012;8.724;2024-03-23T03:43:14;99306.97;;;9.91;99.48
11223;BME280;5668;52.012;8.724;2024-03-23T03:46:05;99304.50;;;9.90;99.44
11223;BME280;5668;52.012;8.724;2024-03-23T03:48:58;99299.56;;;9.87;99.38
11223;BME280;5668;52.012;8.724;2024-03-23T03:51:49;99303.09;;;9.86;99.17
11223;BME280;5668;52.012;8.724;2024-03-23T03:54:40;99314.69;;;9.82;98.51
11223;BME280;5668;52.012;8.724;2024-03-23T03:57:31;99313.03;;;9.81;98.76
11223;BME280;5668;52.012;8.724;2024-03-23T04:00:22;99314.25;;;9.77;98.46
11223;BME280;5668;52.012;8.724;2024-03-23T04:03:13;99310.13;;;9.74;98.68
11223;BME280;5668;52.012;8.724;2024-03-23T04:06:06;99307.66;;;9.73;98.89
11223;BME280;5668;52.012;8.724;2024-03-23T04:08:57;99300.16;;;9.69;98.65
11223;BME280;5668;52.012;8.724;2024-03-23T04:11:48;99296.72;;;9.69;99.01
11223;BME280;5668;52.012;8.724;2024-03-23T04:14:39;99291.53;;;9.69;98.92
11223;BME280;5668;52.012;8.724;2024-03-23T04:17:30;99289.06;;;9.67;99.13
11223;BME280;5668;52.012;8.724;2024-03-23T04:20:22;99295.31;;;9.65;99.35
11223;BME280;5668;52.012;8.724;2024-03-23T04:23:15;99292.84;;;9.63;99.38
11223;BME280;5668;52.012;8.724;2024-03-23T04:26:06;99299.38;;;9.58;98.98
11223;BME280;5668;52.012;8.724;2024-03-23T04:28:57;99296.56;;;9.50;99.03
11223;BME280;5668;52.012;8.724;2024-03-23T04:31:48;99298.63;;;9.46;98.28
11223;BME280;5668;52.012;8.724;2024-03-23T04:34:40;99300.19;;;9.38;98.33
11223;BME280;5668;52.012;8.724;2024-03-23T04:37:31;99290.88;;;9.35;98.88
11223;BME280;5668;52.012;8.724;2024-03-23T04:40:25;99288.66;;;9.30;99.28
11223;BME280;5668;52.012;8.724;2024-03-23T04:43:16;99291.06;;;9.22;99.22
11223;BME280;5668;52.012;8.724;2024-03-23T04:46:07;99298.25;;;9.19;99.82
11223;BME280;5668;52.012;8.724;2024-03-23T04:48:58;99286.47;;;9.15;99.79
11223;BME280;5668;52.012;8.724;2024-03-23T04:51:49;99290.97;;;9.13;100.00
11223;BME280;5668;52.012;8.724;2024-03-23T04:54:40;99303.09;;;9.12;100.00
11223;BME280;5668;52.012;8.724;2024-03-23T04:57:33;99292.84;;;9.11;100.00
11223;BME280;5668;52.012;8.724;2024-03-23T05:00:25;99293.09;;;9.08;100.00
11223;BME280;5668;52.012;8.724;2024-03-23T05:03:17;99287.44;;;9.03;100.00
11223;BME280;5668;52.012;8.724;2024-03-23T05:06:08;99289.09;;;9.04;100.00
11223;BME280;5668;52.012;8.724;2024-03-23T05:08:59;99291.94;;;9.01;100.00
11223;BME280;5668;52.012;8.724;2024-03-23T05:11:50;99284.03;;;9.02;100.00
11223;BME280;5668;52.012;8.724;2024-03-23T05:14:43;99279.56;;;9.04;100.00
11223;BME280;5668;52.012;8.724;2024-03-23T05:17:35;99272.72;;;9.03;100.00
11223;BME280;5668;52.012;8.724;2024-03-23T05:20:27;99270.00;;;9.05;100.00
11223;BME280;5668;52.012;8.724;2024-03-23T05:23:18;99258.72;;;9.06;100.00
11223;BME280;5668;52.012;8.724;2024-03-23T05:26:09;99261.88;;;9.09;100.00
11223;BME280;5668;52.012;8.724;2024-03-23T05:29:00;99264.34;;;9.11;100.00
11223;BME280;5668;52.012;8.724;2024-03-23T05:31:53;99268.84;;;9.09;100.00
11223;BME280;5668;52.012;8.724;2024-03-23T05:34:44;99256.00;;;9.07;100.00
11223;BME280;5668;52.012;8.724;2024-03-23T05:37:35;99266.94;;;9.11;100.00
11223;BME280;5668;52.012;8.724;2024-03-23T05:40:27;99265.75;;;9.15;99.49
11223;BME280;5668;52.012;8.724;2024-03-23T05:43:19;99274.22;;;9.17;99.59
11223;BME280;5668;52.012;8.724;2024-03-23T05:46:10;99280.91;;;9.19;99.12
11223;BME280;5668;52.012;8.724;2024-03-23T05:49:03;99275.63;;;9.21;99.09
11223;BME280;5668;52.012;8.724;2024-03-23T05:51:54;99267.72;;;9.22;98.45
11223;BME280;5668;52.012;8.724;2024-03-23T05:54:45;99271.25;;;9.21;98.44
11223;BME280;5668;52.012;8.724;2024-03-23T05:57:36;99273.03;;;9.21;98.39
11223;BME280;5668;52.012;8.724;2024-03-23T06:00:27;99275.63;;;9.21;97.96
11223;BME280;5668;52.012;8.724;2024-03-23T06:03:18;99272.59;;;9.16;97.40
11223;BME280;5668;52.012;8.724;2024-03-23T06:06:11;99268.84;;;9.09;97.05
11223;BME280;5668;52.012;8.724;2024-03-23T06:09:03;99264.13;;;9.03;97.24
11223;BME280;5668;52.012;8.724;2024-03-23T06:11:54;99274.75;;;9.00;97.59
11223;BME280;5668;52.012;8.724;2024-03-23T06:14:45;99277.56;;;8.97;98.52
11223;BME280;5668;52.012;8.724;2024-03-23T06:17:36;99270.91;;;8.94;98.62
11223;BME280;5668;52.012;8.724;2024-03-23T06:20:27;99273.34;;;8.96;99.45
11223;BME280;5668;52.012;8.724;2024-03-23T06:23:19;99268.03;;;8.97;99.96
11223;BME280;5668;52.012;8.724;2024-03-23T06:26:10;99281.09;;;8.96;100.00
11223;BME280;5668;52.012;8.724;2024-03-23T06:29:01;99278.78;;;8.92;100.00
11223;BME280;5668;52.012;8.724;2024-03-23T06:31:54;99274.31;;;8.95;100.00
11223;BME280;5668;52.012;8.724;2024-03-23T16:06:52;99208.91;;;9.44;88.14
11223;BME280;5668;52.012;8.724;2024-03-23T16:09:19;99203.22;;;9.50;88.03
11223;BME280;5668;52.012;8.724;2024-03-23T16:11:45;99196.56;;;9.57;88.26
11223;BME280;5668;52.012;8.724;2024-03-23T16:14:12;99194.56;;;9.60;88.34
11223;BME280;5668;52.012;8.724;2024-03-23T16:16:39;99196.44;;;9.58;87.78
11223;BME280;5668;52.012;8.724;2024-03-23T16:19:06;99194.81;;;9.57;87.58
11223;BME280;5668;52.012;8.724;2024-03-23T16:21:32;99194.72;;;9.48;87.39
11223;BME280;5668;52.012;8.724;2024-03-23T16:24:01;99199.63;;;9.41;87.60
11223;BME280;5668;52.012;8.724;2024-03-23T16:26:27;99193.59;;;9.41;88.38
11223;BME280;5668;52.012;8.724;2024-03-23T16:28:54;99196.34;;;9.39;88.58
11223;BME280;5668;52.012;8.724;2024-03-23T16:31:21;99180.63;;;9.41;88.91
11223;BME280;5668;52.012;8.724;2024-03-23T16:33:48;99184.84;;;9.32;88.73
11223;BME280;5668;52.012;8.724;2024-03-23T16:36:14;99184.25;;;9.28;88.54
11223;BME280;5668;52.012;8.724;2024-03-23T16:38:43;99181.53;;;9.30;88.61
11223;BME280;5668;52.012;8.724;2024-03-23T16:41:12;99177.06;;;9.32;88.48
11223;BME280;5668;52.012;8.724;2024-03-23T16:43:42;99174.84;;;9.27;88.30
11223;BME280;5668;52.012;8.724;2024-03-23T17:03:01;99202.41;;;9.08;84.59
11223;BME280;5668;52.012;8.724;2024-03-23T17:05:28;99210.19;;;9.08;84.01
11223;BME280;5668;52.012;8.724;2024-03-23T17:07:54;99216.53;;;9.04;82.18
11223;BME280;5668;52.012;8.724;2024-03-23T17:10:23;99218.94;;;8.96;80.16
11223;BME280;5668;52.012;8.724;2024-03-23T17:12:50;99219.19;;;8.92;80.52
11223;BME280;5668;52.012;8.724;2024-03-23T17:15:17;99223.53;;;8.92;80.20
11223;BME280;5668;52.012;8.724;2024-03-23T17:17:47;99229.78;;;8.89;79.58
11223;BME280;5668;52.012;8.724;2024-03-23T17:20:17;99227.47;;;8.86;79.09
11223;BME280;5668;52.012;8.724;2024-03-23T17:22:44;99234.97;;;8.89;79.30
11223;BME280;5668;52.012;8.724;2024-03-23T17:25:11;99231.66;;;8.87;80.10
11223;BME280;5668;52.012;8.724;2024-03-23T17:27:37;99229.22;;;8.86;80.10
11223;BME280;5668;52.012;8.724;2024-03-23T17:30:06;99218.72;;;8.87;80.59
11223;BME280;5668;52.012;8.724;2024-03-23T17:32:32;99210.94;;;8.87;80.08
11223;BME280;5668;52.012;8.724;2024-03-23T17:34:59;99219.44;;;8.89;80.56
11223;BME280;5668;52.012;8.724;2024-03-23T17:37:27;99208.81;;;8.92;80.49
11223;BME280;5668;52.012;8.724;2024-03-23T17:39:54;99217.53;;;8.91;80.71
11223;BME280;5668;52.012;8.724;2024-03-23T17:42:20;99213.75;;;8.96;80.59
11223;BME280;5668;52.012;8.724;2024-03-23T17:44:52;99219.19;;;8.92;80.47
11223;BME280;5668;52.012;8.724;2024-03-23T17:47:18;99224.59;;;8.89;81.16
11223;BME280;5668;52.012;8.724;2024-03-23T17:49:45;99227.19;;;8.89;81.30
11223;BME280;5668;52.012;8.724;2024-03-23T17:52:11;99226.75;;;8.84;81.56
11223;BME280;5668;52.012;8.724;2024-03-23T17:54:40;99234.19;;;8.78;83.70
11223;BME280;5668;52.012;8.724;2024-03-23T17:57:06;99230.19;;;8.74;83.94
11223;BME280;5668;52.012;8.724;2024-03-23T17:59:34;99229.13;;;8.76;84.58
11223;BME280;5668;52.012;8.724;2024-03-23T18:02:01;99223.47;;;8.82;84.69
11223;BME280;5668;52.012;8.724;2024-03-23T18:04:27;99217.44;;;8.82;84.16
11223;BME280;5668;52.012;8.724;2024-03-23T18:06:54;99219.34;;;8.80;84.71
11223;BME280;5668;52.012;8.724;2024-03-23T18:09:21;99223.84;;;8.78;84.44
11223;BME280;5668;52.012;8.724;2024-03-23T18:11:49;99219.00;;;8.73;84.50
11223;BME280;5668;52.012;8.724;2024-03-23T18:14:15;99225.72;;;8.76;84.98
11223;BME280;5668;52.012;8.724;2024-03-23T18:16:43;99223.00;;;8.77;84.98
11223;BME280;5668;52.012;8.724;2024-03-23T18:19:10;99219.28;;;8.70;84.72
11223;BME280;5668;52.012;8.724;2024-03-23T18:21:37;99230.13;;;8.64;84.46
11223;BME280;5668;52.012;8.724;2024-03-23T18:24:05;99234.94;;;8.58;84.96
11223;BME280;5668;52.012;8.724;2024-03-23T18:26:31;99226.22;;;8.59;85.69
11223;BME280;5668;52.012;8.724;2024-03-23T18:29:00;99230.13;;;8.64;85.06
11223;BME280;5668;52.012;8.724;2024-03-23T18:31:26;99237.63;;;8.67;85.34
11223;BME280;5668;52.012;8.724;2024-03-23T18:33:53;99249.19;;;8.63;85.32
11223;BME280;5668;52.012;8.724;2024-03-23T18:36:20;99246.72;;;8.50;85.25
11223;BME280;5668;52.012;8.724;2024-03-23T18:38:47;99253.81;;;8.37;84.88
11223;BME280;5668;52.012;8.724;2024-03-23T18:41:13;99246.16;;;8.36;84.84
11223;BME280;5668;52.012;8.724;2024-03-23T18:43:41;99239.31;;;8.35;84.70
11223;BME280;5668;52.012;8.724;2024-03-23T18:46:08;99239.31;;;8.35;83.84
11223;BME280;5668;52.012;8.724;2024-03-23T18:48:35;99225.34;;;8.26;82.80
11223;BME280;5668;52.012;8.724;2024-03-23T18:51:03;99228.03;;;8.25;83.39
11223;BME280;5668;52.012;8.724;2024-03-23T18:53:30;99231.56;;;8.24;82.82
11223;BME280;5668;52.012;8.724;2024-03-23T18:55:57;99224.72;;;8.23;81.68
11223;BME280;5668;52.012;8.724;2024-03-23T18:58:26;99234.25;;;8.22;81.63
11223;BME280;5668;52.012;8.724;2024-03-23T19:00:56;99224.84;;;8.21;81.19
11223;BME280;5668;52.012;8.724;2024-03-23T19:03:25;99225.66;;;8.22;81.38
11223;BME280;5668;52.012;8.724;2024-03-23T19:05:54;99230.13;;;8.20;81.39
11223;BME280;5668;52.012;8.724;2024-03-23T19:08:22;99232.25;;;8.14;81.19
11223;BME280;5668;52.012;8.724;2024-03-23T19:10:53;99228.50;;;8.19;81.71
11223;BME280;5668;52.012;8.724;2024-03-23T19:13:20;99232.03;;;8.18;82.03
11223;BME280;5668;52.012;8.724;2024-03-23T19:15:47;99234.84;;;8.14;81.76
11223;BME280;5668;52.012;8.724;2024-03-23T19:18:14;99233.91;;;8.15;82.07
11223;BME280;5668;52.012;8.724;2024-03-23T19:20:42;99238.16;;;8.16;81.47
11223;BME280;5668;52.012;8.724;2024-03-23T19:23:10;99235.78;;;8.13;81.85
11223;BME280;5668;52.012;8.724;2024-03-23T19:25:36;99232.53;;;8.11;81.81
11223;BME280;5668;52.012;8.724;2024-03-23T19:28:05;99243.81;;;8.10;81.94
11223;BME280;5668;52.012;8.724;2024-03-23T19:30:31;99235.22;;;8.10;81.79
11223;BME280;5668;52.012;8.724;2024-03-23T19:32:58;99234.13;;;8.12;82.24
11223;BME280;5668;52.012;8.724;2024-03-23T19:35:25;99235.78;;;8.13;82.42
11223;BME280;5668;52.012;8.724;2024-03-23T19:37:54;99236.25;;;8.07;83.05
11223;BME280;5668;52.012;8.724;2024-03-23T19:40:20;99238.84;;;8.07;82.79
11223;BME280;5668;52.012;8.724;2024-03-23T19:42:48;99228.72;;;8.04;83.13
11223;BME280;5668;52.012;8.724;2024-03-23T19:45:15;99237.09;;;7.97;83.37
11223;BME280;5668;52.012;8.724;2024-03-23T19:47:43;99242.25;;;7.86;83.81
11223;BME280;5668;52.012;8.724;2024-03-23T19:50:10;99236.84;;;7.77;83.99
11223;BME280;5668;52.012;8.724;2024-03-23T19:52:38;99239.28;;;7.68;83.92
11223;BME280;5668;52.012;8.724;2024-03-23T19:55:07;99237.53;;;7.57;83.88
11223;BME280;5668;52.012;8.724;2024-03-23T19:57:34;99238.56;;;7.55;84.92
11223;BME280;5668;52.012;8.724;2024-03-23T20:00:00;99235.97;;;7.55;85.78
11223;BME280;5668;52.012;8.724;2024-03-23T20:02:28;99235.00;;;7.45;85.21
11223;BME280;5668;52.012;8.724;2024-03-23T20:04:54;99231.50;;;7.46;85.40
11223;BME280;5668;52.012;8.724;2024-03-23T20:07:21;99230.81;;;7.44;86.04
11223;BME280;5668;52.012;8.724;2024-03-23T20:09:47;99232.41;;;7.45;85.83
11223;BME280;5668;52.012;8.724;2024-03-23T20:12:16;99232.88;;;7.38;86.86
11223;BME280;5668;52.012;8.724;2024-03-23T20:14:42;99227.25;;;7.33;87.35
11223;BME280;5668;52.012;8.724;2024-03-23T20:17:12;99227.25;;;7.33;87.40
11223;BME280;5668;52.012;8.724;2024-03-23T20:19:38;99225.13;;;7.27;87.31
11223;BME280;5668;52.012;8.724;2024-03-23T20:22:05;99217.56;;;7.24;87.85
11223;BME280;5668;52.012;8.724;2024-03-23T20:24:32;99218.97;;;7.17;88.36
11223;BME280;5668;52.012;8.724;2024-03-23T20:26:59;99210.13;;;7.09;88.32
11223;BME280;5668;52.012;8.724;2024-03-23T20:29:27;99216.69;;;7.02;88.83
11223;BME280;5668;52.012;8.724;2024-03-23T20:31:54;99211.41;;;7.03;89.04
11223;BME280;5668;52.012;8.724;2024-03-23T20:34:20;99211.63;;;7.00;89.77
11223;BME280;5668;52.012;8.724;2024-03-23T20:36:48;99204.69;;;7.00;89.19
11223;BME280;5668;52.012;8.724;2024-03-23T20:39:14;99206.81;;;6.95;88.97
11223;BME280;5668;52.012;8.724;2024-03-23T20:41:42;99203.41;;;6.95;90.61
11223;BME280;5668;52.012;8.724;2024-03-23T20:44:09;99206.44;;;7.00;89.63
11223;BME280;5668;52.012;8.724;2024-03-23T20:46:37;99200.34;;;6.90;89.73
11223;BME280;5668;52.012;8.724;2024-03-23T20:49:04;99201.75;;;6.94;90.31
11223;BME280;5668;52.012;8.724;2024-03-23T20:51:32;99205.25;;;6.93;90.21
11223;BME280;5668;52.012;8.724;2024-03-23T20:53:59;99198.88;;;6.86;90.56
11223;BME280;5668;52.012;8.724;2024-03-23T20:56:26;99204.88;;;6.86;90.34
11223;BME280;5668;52.012;8.724;2024-03-23T20:58:53;99192.91;;;6.85;89.82
11223;BME280;5668;52.012;8.724;2024-03-23T21:01:20;99196.00;;;6.90;90.56
11223;BME280;5668;52.012;8.724;2024-03-23T21:03:48;99199.81;;;6.85;89.72
11223;BME280;5668;52.012;8.724;2024-03-23T21:06:17;99204.06;;;6.86;91.01
11223;BME280;5668;52.012;8.724;2024-03-23T21:08:43;99197.75;;;6.90;90.84
11223;BME280;5668;52.012;8.724;2024-03-23T21:11:12;99205.41;;;6.91;91.17
11223;BME280;5668;52.012;8.724;2024-03-23T21:13:38;99201.97;;;6.91;90.47
11223;BME280;5668;52.012;8.724;2024-03-23T21:16:05;99199.72;;;6.86;90.15
11223;BME280;5668;52.012;8.724;2024-03-23T21:18:33;99200.44;;;6.88;90.77
11223;BME280;5668;52.012;8.724;2024-03-23T21:21:03;99188.56;;;6.86;90.65
11223;BME280;5668;52.012;8.724;2024-03-23T21:23:31;99186.91;;;6.85;90.20
11223;BME280;5668;52.012;8.724;2024-03-23T21:26:01;99193.03;;;6.84;90.43
11223;BME280;5668;52.012;8.724;2024-03-23T21:28:28;99190.66;;;6.81;91.40
11223;BME280;5668;52.012;8.724;2024-03-23T21:30:56;99186.53;;;6.78;90.74
11223;BME280;5668;52.012;8.724;2024-03-23T21:33:23;99191.69;;;6.78;90.47
11223;BME280;5668;52.012;8.724;2024-03-23T21:35:56;99191.69;;;6.78;91.38
11223;BME280;5668;52.012;8.724;2024-03-23T21:38:24;99195.09;;;6.79;91.84
11223;BME280;5668;52.012;8.724;2024-03-23T21:40:53;99188.28;;;6.78;91.33
11223;BME280;5668;52.012;8.724;2024-03-23T21:43:20;99180.53;;;6.78;91.52
11223;BME280;5668;52.012;8.724;2024-03-23T21:45:55;99184.06;;;6.77;92.00
11223;BME280;5668;52.012;8.724;2024-03-23T21:48:21;99174.78;;;6.74;91.58
11223;BME280;5668;52.012;8.724;2024-03-23T21:50:48;99166.13;;;6.75;92.04
11223;BME280;5668;52.012;8.724;2024-03-23T21:53:15;99165.28;;;6.75;91.83
11223;BME280;5668;52.012;8.724;2024-03-23T21:55:51;99164.91;;;6.68;91.70
11223;BME280;5668;52.012;8.724;2024-03-23T21:58:17;99169.47;;;6.65;92.57
11223;BME280;5668;52.012;8.724;2024-03-23T22:00:45;99159.97;;;6.65;92.04
11223;BME280;5668;52.012;8.724;2024-03-23T22:03:12;99161.00;;;6.63;91.92
11223;BME280;5668;52.012;8.724;2024-03-23T22:05:39;99164.41;;;6.63;92.26
11223;BME280;5668;52.012;8.724;2024-03-23T22:08:06;99158.94;;;6.68;92.84
11223;BME280;5668;52.012;8.724;2024-03-23T22:10:34;99155.63;;;6.66;92.17
11223;BME280;5668;52.012;8.724;2024-03-23T22:13:02;99150.47;;;6.66;91.69
11223;BME280;5668;52.012;8.724;2024-03-23T22:15:29;99150.47;;;6.66;91.77
11223;BME280;5668;52.012;8.724;2024-03-23T22:17:55;99142.25;;;6.60;92.68
11223;BME280;5668;52.012;8.724;2024-03-23T22:20:24;99134.72;;;6.57;92.08
11223;BME280;5668;52.012;8.724;2024-03-23T22:22:53;99145.84;;;6.58;92.49
11223;BME280;5668;52.012;8.724;2024-03-23T22:25:20;99134.00;;;6.55;92.63
11223;BME280;5668;52.012;8.724;2024-03-23T22:27:48;99139.16;;;6.55;92.91
11223;BME280;5668;52.012;8.724;2024-03-23T22:30:19;99124.72;;;6.53;93.17
11223;BME280;5668;52.012;8.724;2024-03-23T22:32:46;99126.94;;;6.46;92.37
11223;BME280;5668;52.012;8.724;2024-03-23T22:35:13;99124.34;;;6.46;93.25
11223;BME280;5668;52.012;8.724;2024-03-23T22:37:40;99122.91;;;6.42;93.71
11223;BME280;5668;52.012;8.724;2024-03-23T22:40:10;99121.63;;;6.48;93.98
11223;BME280;5668;52.012;8.724;2024-03-23T22:42:37;99119.88;;;6.48;94.00
11223;BME280;5668;52.012;8.724;2024-03-23T22:45:05;99123.19;;;6.50;93.42
11223;BME280;5668;52.012;8.724;2024-03-23T22:47:34;99121.53;;;6.49;93.94
11223;BME280;5668;52.012;8.724;2024-03-23T22:50:03;99115.34;;;6.52;93.22
11223;BME280;5668;52.012;8.724;2024-03-23T22:52:32;99112.75;;;6.52;94.08
11223;BME280;5668;52.012;8.724;2024-03-23T22:54:59;99100.16;;;6.47;94.11
11223;BME280;5668;52.012;8.724;2024-03-23T22:57:25;99097.31;;;6.39;93.94
11223;BME280;5668;52.012;8.724;2024-03-23T22:59:53;99091.47;;;6.37;94.36
11223;BME280;5668;52.012;8.724;2024-03-23T23:02:19;99084.56;;;6.38;95.04
11223;BME280;5668;52.012;8.724;2024-03-23T23:04:49;99086.31;;;6.37;94.13
11223;BME280;5668;52.012;8.724;2024-03-23T23:07:15;99081.84;;;6.39;95.17
11223;BME280;5668;52.012;8.724;2024-03-23T23:09:43;99076.09;;;6.36;94.44
11223;BME280;5668;52.012;8.724;2024-03-23T23:12:09;99080.22;;;6.38;95.44
11223;BME280;5668;52.012;8.724;2024-03-23T23:14:36;99079.16;;;6.41;95.31
11223;BME280;5668;52.012;8.724;2024-03-23T23:17:03;99078.56;;;6.37;95.30
11223;BME280;5668;52.012;8.724;2024-03-23T23:19:30;99082.28;;;6.33;94.86
11223;BME280;5668;52.012;8.724;2024-03-23T23:22:00;99077.13;;;6.33;94.98
11223;BME280;5668;52.012;8.724;2024-03-23T23:24:27;99075.16;;;6.37;95.19
11223;BME280;5668;52.012;8.724;2024-03-23T23:26:53;99072.69;;;6.35;95.19
11223;BME280;5668;52.012;8.724;2024-03-23T23:29:21;99065.16;;;6.32;95.39
11223;BME280;5668;52.012;8.724;2024-03-23T23:31:47;99067.63;;;6.34;95.94
11223;BME280;5668;52.012;8.724;2024-03-23T23:34:15;99065.16;;;6.32;95.56
11223;BME280;5668;52.012;8.724;2024-03-23T23:36:41;99068.47;;;6.34;95.77
11223;BME280;5668;52.012;8.724;2024-03-23T23:39:10;99065.16;;;6.32;95.94
11223;BME280;5668;52.012;8.724;2024-03-23T23:41:36;99058.13;;;6.34;94.98
11223;BME280;5668;52.012;8.724;2024-03-23T23:44:03;99059.19;;;6.32;94.95
11223;BME280;5668;52.012;8.724;2024-03-23T23:46:31;99059.31;;;6.30;95.27
11223;BME280;5668;52.012;8.724;2024-03-23T23:48:58;99062.94;;;6.28;95.63
11223;BME280;5668;52.012;8.724;2024-03-23T23:51:27;99065.41;;;6.29;96.12
11223;BME280;5668;52.012;8.724;2024-03-23T23:53:54;99054.25;;;6.29;94.92
11223;BME280;5668;52.012;8.724;2024-03-23T23:56:21;99058.59;;;6.28;96.00
11223;BME280;5668;52.012;8.724;2024-03-23T23:58:49;99046.84;;;6.24;95.79
